sensor_id;sensor_type;location;lat;lon;timestamp;temperature;humidity
148;DHT22;142;50.652;12.216;2023-03-08T00:00:18;4.10;32.90
148;DHT22;142;50.652;12.216;2023-03-08T00:02:46;4.10;32.90
148;DHT22;142;50.652;12.216;2023-03-08T00:05:14;4.10;32.90
148;DHT22;142;50.652;12.216;2023-03-08T00:07:42;4.10;32.90
148;DHT22;142;50.652;12.216;2023-03-08T00:10:10;4.10;32.90
148;DHT22;142;50.652;12.216;2023-03-08T00:12:37;4.10;32.90
148;DHT22;142;50.652;12.216;2023-03-08T00:15:05;4.10;33.00
148;DHT22;142;50.652;12.216;2023-03-08T00:17:35;4.10;33.00
148;DHT22;142;50.652;12.216;2023-03-08T00:20:03;4.10;32.90
148;DHT22;142;50.652;12.216;2023-03-08T00:22:36;4.10;33.00
148;DHT22;142;50.652;12.216;2023-03-08T00:25:04;4.10;33.10
148;DHT22;142;50.652;12.216;2023-03-08T00:27:33;4.10;33.00
148;DHT22;142;50.652;12.216;2023-03-08T00:30:00;4.10;33.10
148;DHT22;142;50.652;12.216;2023-03-08T00:32:27;4.00;32.90
148;DHT22;142;50.652;12.216;2023-03-08T00:34:55;4.00;33.10
148;DHT22;142;50.652;12.216;2023-03-08T00:37:22;3.90;33.10
148;DHT22;142;50.652;12.216;2023-03-08T00:39:51;3.90;33.10
148;DHT22;142;50.652;12.216;2023-03-08T00:42:19;3.90;33.20
148;DHT22;142;50.652;12.216;2023-03-08T00:44:47;4.00;33.30
148;DHT22;142;50.652;12.216;2023-03-08T00:47:15;4.00;33.30
148;DHT22;142;50.652;12.216;2023-03-08T00:49:42;4.00;33.30
148;DHT22;142;50.652;12.216;2023-03-08T00:52:10;4.00;33.40
148;DHT22;142;50.652;12.216;2023-03-08T00:54:37;4.00;33.40
148;DHT22;142;50.652;12.216;2023-03-08T00:57:06;3.90;33.30
148;DHT22;142;50.652;12.216;2023-03-08T00:59:33;3.90;33.40
148;DHT22;142;50.652;12.216;2023-03-08T01:02:01;3.90;33.30
148;DHT22;142;50.652;12.216;2023-03-08T01:04:28;4.00;33.50
148;DHT22;142;50.652;12.216;2023-03-08T01:06:55;4.00;33.40
148;DHT22;142;50.652;12.216;2023-03-08T01:09:22;4.00;33.40
148;DHT22;142;50.652;12.216;2023-03-08T01:11:49;3.90;33.50
148;DHT22;142;50.652;12.216;2023-03-08T01:14:18;4.00;33.40
148;DHT22;142;50.652;12.216;2023-03-08T01:16:45;4.00;33.40
148;DHT22;142;50.652;12.216;2023-03-08T01:19:12;4.00;33.50
148;DHT22;142;50.652;12.216;2023-03-08T01:21:39;4.00;33.40
148;DHT22;142;50.652;12.216;2023-03-08T01:24:06;4.00;33.40
148;DHT22;142;50.652;12.216;2023-03-08T01:26:33;3.90;33.40
148;DHT22;142;50.652;12.216;2023-03-08T01:29:01;3.90;33.30
148;DHT22;142;50.652;12.216;2023-03-08T01:31:29;3.80;33.40
148;DHT22;142;50.652;12.216;2023-03-08T01:33:57;3.80;33.40
148;DHT22;142;50.652;12.216;2023-03-08T01:36:25;3.80;33.50
148;DHT22;142;50.652;12.216;2023-03-08T01:38:55;3.80;33.50
148;DHT22;142;50.652;12.216;2023-03-08T01:41:27;3.80;33.50
148;DHT22;142;50.652;12.216;2023-03-08T01:43:54;3.80;33.50
148;DHT22;142;50.652;12.216;2023-03-08T01:46:25;3.80;33.70
148;DHT22;142;50.652;12.216;2023-03-08T01:48:59;3.90;33.70
148;DHT22;142;50.652;12.216;2023-03-08T01:51:33;3.90;33.80
148;DHT22;142;50.652;12.216;2023-03-08T01:54:04;4.00;33.80
148;DHT22;142;50.652;12.216;2023-03-08T01:56:33;3.90;33.70
148;DHT22;142;50.652;12.216;2023-03-08T01:59:02;3.90;33.70
148;DHT22;142;50.652;12.216;2023-03-08T02:01:30;3.90;33.70
148;DHT22;142;50.652;12.216;2023-03-08T02:04:01;3.90;33.60
148;DHT22;142;50.652;12.216;2023-03-08T02:06:29;3.90;33.60
148;DHT22;142;50.652;12.216;2023-03-08T02:08:57;3.90;33.60
148;DHT22;142;50.652;12.216;2023-03-08T02:11:29;3.90;33.70
148;DHT22;142;50.652;12.216;2023-03-08T02:13:56;3.90;33.70
148;DHT22;142;50.652;12.216;2023-03-08T02:16:24;3.90;33.70
148;DHT22;142;50.652;12.216;2023-03-08T02:18:55;3.90;33.70
148;DHT22;142;50.652;12.216;2023-03-08T02:21:25;4.00;33.80
148;DHT22;142;50.652;12.216;2023-03-08T02:23:54;4.00;33.80
148;DHT22;142;50.652;12.216;2023-03-08T02:26:22;3.90;33.70
148;DHT22;142;50.652;12.216;2023-03-08T02:28:50;3.90;33.60
148;DHT22;142;50.652;12.216;2023-03-08T02:31:17;3.80;33.60
148;DHT22;142;50.652;12.216;2023-03-08T02:33:44;3.80;33.70
148;DHT22;142;50.652;12.216;2023-03-08T02:36:11;3.80;33.80
148;DHT22;142;50.652;12.216;2023-03-08T02:38:39;3.80;33.80
148;DHT22;142;50.652;12.216;2023-03-08T02:41:07;3.80;33.90
148;DHT22;142;50.652;12.216;2023-03-08T02:43:34;3.80;33.90
148;DHT22;142;50.652;12.216;2023-03-08T02:46:02;3.80;33.90
148;DHT22;142;50.652;12.216;2023-03-08T02:48:29;3.90;33.90
148;DHT22;142;50.652;12.216;2023-03-08T02:50:56;3.80;33.90
148;DHT22;142;50.652;12.216;2023-03-08T02:53:23;3.90;33.90
148;DHT22;142;50.652;12.216;2023-03-08T02:55:51;3.90;34.00
148;DHT22;142;50.652;12.216;2023-03-08T02:58:22;3.90;33.90
148;DHT22;142;50.652;12.216;2023-03-08T03:00:49;3.90;34.00
148;DHT22;142;50.652;12.216;2023-03-08T03:03:16;4.00;33.90
148;DHT22;142;50.652;12.216;2023-03-08T03:05:45;4.00;33.90
148;DHT22;142;50.652;12.216;2023-03-08T03:08:13;4.00;33.80
148;DHT22;142;50.652;12.216;2023-03-08T03:10:40;4.00;34.00
148;DHT22;142;50.652;12.216;2023-03-08T03:13:08;4.00;33.80
148;DHT22;142;50.652;12.216;2023-03-08T03:15:38;4.00;33.80
148;DHT22;142;50.652;12.216;2023-03-08T03:18:05;3.90;33.80
148;DHT22;142;50.652;12.216;2023-03-08T03:20:33;3.90;33.80
148;DHT22;142;50.652;12.216;2023-03-08T03:22:59;3.90;33.80
148;DHT22;142;50.652;12.216;2023-03-08T03:25:27;3.90;33.80
148;DHT22;142;50.652;12.216;2023-03-08T03:27:55;3.90;33.90
148;DHT22;142;50.652;12.216;2023-03-08T03:30:22;3.90;33.80
148;DHT22;142;50.652;12.216;2023-03-08T03:32:51;3.90;33.90
148;DHT22;142;50.652;12.216;2023-03-08T03:35:18;3.80;34.00
148;DHT22;142;50.652;12.216;2023-03-08T03:37:46;3.80;33.90
148;DHT22;142;50.652;12.216;2023-03-08T03:40:14;3.80;33.90
148;DHT22;142;50.652;12.216;2023-03-08T03:42:41;3.80;33.90
148;DHT22;142;50.652;12.216;2023-03-08T03:45:09;3.70;34.00
148;DHT22;142;50.652;12.216;2023-03-08T03:47:36;3.70;34.00
148;DHT22;142;50.652;12.216;2023-03-08T03:50:05;3.70;34.30
148;DHT22;142;50.652;12.216;2023-03-08T03:52:32;3.80;34.30
148;DHT22;142;50.652;12.216;2023-03-08T03:54:59;3.80;34.30
148;DHT22;142;50.652;12.216;2023-03-08T03:57:27;3.90;34.40
148;DHT22;142;50.652;12.216;2023-03-08T03:59:54;3.90;34.40
148;DHT22;142;50.652;12.216;2023-03-08T04:02:21;3.90;34.40
148;DHT22;142;50.652;12.216;2023-03-08T04:04:49;3.90;34.30
148;DHT22;142;50.652;12.216;2023-03-08T04:07:18;3.90;34.40
148;DHT22;142;50.652;12.216;2023-03-08T04:09:45;3.90;34.30
148;DHT22;142;50.652;12.216;2023-03-08T04:12:13;3.90;34.10
148;DHT22;142;50.652;12.216;2023-03-08T04:14:40;3.90;34.30
148;DHT22;142;50.652;12.216;2023-03-08T04:17:07;3.90;34.30
148;DHT22;142;50.652;12.216;2023-03-08T04:19:34;3.90;34.30
148;DHT22;142;50.652;12.216;2023-03-08T04:22:02;3.90;34.30
148;DHT22;142;50.652;12.216;2023-03-08T04:24:32;3.80;34.30
148;DHT22;142;50.652;12.216;2023-03-08T04:26:59;3.70;34.20
148;DHT22;142;50.652;12.216;2023-03-08T04:29:29;3.60;34.20
148;DHT22;142;50.652;12.216;2023-03-08T04:31:56;3.70;34.50
148;DHT22;142;50.652;12.216;2023-03-08T04:34:25;3.70;34.60
148;DHT22;142;50.652;12.216;2023-03-08T04:36:52;3.70;34.60
148;DHT22;142;50.652;12.216;2023-03-08T04:39:19;3.60;34.60
148;DHT22;142;50.652;12.216;2023-03-08T04:41:48;3.50;34.60
148;DHT22;142;50.652;12.216;2023-03-08T04:44:15;3.50;34.70
148;DHT22;142;50.652;12.216;2023-03-08T04:46:42;3.50;34.80
148;DHT22;142;50.652;12.216;2023-03-08T04:49:09;3.40;35.00
148;DHT22;142;50.652;12.216;2023-03-08T04:51:36;3.30;35.00
148;DHT22;142;50.652;12.216;2023-03-08T04:54:04;3.20;35.10
148;DHT22;142;50.652;12.216;2023-03-08T04:56:32;3.20;35.30
148;DHT22;142;50.652;12.216;2023-03-08T04:59:01;3.30;35.70
148;DHT22;142;50.652;12.216;2023-03-08T05:01:29;3.40;35.80
148;DHT22;142;50.652;12.216;2023-03-08T05:03:57;3.40;35.90
148;DHT22;142;50.652;12.216;2023-03-08T05:06:25;3.30;35.80
148;DHT22;142;50.652;12.216;2023-03-08T05:08:56;3.30;35.90
148;DHT22;142;50.652;12.216;2023-03-08T05:11:25;3.20;36.00
148;DHT22;142;50.652;12.216;2023-03-08T05:13:55;3.20;36.10
148;DHT22;142;50.652;12.216;2023-03-08T05:16:25;3.30;36.10
148;DHT22;142;50.652;12.216;2023-03-08T05:18:52;3.30;36.30
148;DHT22;142;50.652;12.216;2023-03-08T05:21:21;3.30;36.30
148;DHT22;142;50.652;12.216;2023-03-08T05:23:48;3.40;36.40
148;DHT22;142;50.652;12.216;2023-03-08T05:26:17;3.40;36.50
148;DHT22;142;50.652;12.216;2023-03-08T05:28:44;3.50;36.50
148;DHT22;142;50.652;12.216;2023-03-08T05:31:13;3.40;36.30
148;DHT22;142;50.652;12.216;2023-03-08T05:33:45;3.50;36.30
148;DHT22;142;50.652;12.216;2023-03-08T05:36:15;3.40;36.30
148;DHT22;142;50.652;12.216;2023-03-08T05:38:43;3.40;36.30
148;DHT22;142;50.652;12.216;2023-03-08T05:41:12;3.40;36.10
148;DHT22;142;50.652;12.216;2023-03-08T05:43:40;3.30;36.10
148;DHT22;142;50.652;12.216;2023-03-08T05:46:10;3.30;36.30
148;DHT22;142;50.652;12.216;2023-03-08T05:48:38;3.30;36.40
148;DHT22;142;50.652;12.216;2023-03-08T05:51:08;3.20;36.40
148;DHT22;142;50.652;12.216;2023-03-08T05:53:36;3.20;36.50
148;DHT22;142;50.652;12.216;2023-03-08T05:56:07;3.30;36.60
148;DHT22;142;50.652;12.216;2023-03-08T05:58:35;3.30;36.60
148;DHT22;142;50.652;12.216;2023-03-08T06:01:14;3.30;36.70
148;DHT22;142;50.652;12.216;2023-03-08T06:03:42;3.30;36.60
148;DHT22;142;50.652;12.216;2023-03-08T06:06:11;3.30;36.70
148;DHT22;142;50.652;12.216;2023-03-08T06:08:39;3.40;36.90
148;DHT22;142;50.652;12.216;2023-03-08T06:11:07;3.50;36.90
148;DHT22;142;50.652;12.216;2023-03-08T06:13:34;3.50;36.80
148;DHT22;142;50.652;12.216;2023-03-08T06:16:01;3.50;36.80
148;DHT22;142;50.652;12.216;2023-03-08T06:18:29;3.40;36.70
148;DHT22;142;50.652;12.216;2023-03-08T06:20:58;3.30;36.40
148;DHT22;142;50.652;12.216;2023-03-08T06:23:28;3.30;36.50
148;DHT22;142;50.652;12.216;2023-03-08T06:25:56;3.20;36.60
148;DHT22;142;50.652;12.216;2023-03-08T06:28:24;3.20;36.60
148;DHT22;142;50.652;12.216;2023-03-08T06:30:52;3.30;36.80
148;DHT22;142;50.652;12.216;2023-03-08T06:33:21;3.40;36.90
148;DHT22;142;50.652;12.216;2023-03-08T06:35:56;3.40;37.00
148;DHT22;142;50.652;12.216;2023-03-08T06:38:25;3.50;37.10
148;DHT22;142;50.652;12.216;2023-03-08T06:40:53;3.50;37.00
148;DHT22;142;50.652;12.216;2023-03-08T06:43:20;3.60;37.10
148;DHT22;142;50.652;12.216;2023-03-08T06:45:47;3.70;37.10
148;DHT22;142;50.652;12.216;2023-03-08T06:48:14;3.70;36.90
148;DHT22;142;50.652;12.216;2023-03-08T06:50:42;3.50;36.40
148;DHT22;142;50.652;12.216;2023-03-08T06:53:09;3.60;36.50
148;DHT22;142;50.652;12.216;2023-03-08T06:55:39;3.60;36.60
148;DHT22;142;50.652;12.216;2023-03-08T06:58:07;3.50;36.50
148;DHT22;142;50.652;12.216;2023-03-08T07:00:34;3.60;36.80
148;DHT22;142;50.652;12.216;2023-03-08T07:03:02;3.50;36.40
148;DHT22;142;50.652;12.216;2023-03-08T07:05:29;3.40;36.50
148;DHT22;142;50.652;12.216;2023-03-08T07:07:56;3.40;36.60
148;DHT22;142;50.652;12.216;2023-03-08T07:10:24;3.50;36.80
148;DHT22;142;50.652;12.216;2023-03-08T07:12:52;3.50;36.90
148;DHT22;142;50.652;12.216;2023-03-08T07:15:21;3.60;37.00
148;DHT22;142;50.652;12.216;2023-03-08T07:17:51;3.70;37.00
148;DHT22;142;50.652;12.216;2023-03-08T07:20:22;3.70;37.00
148;DHT22;142;50.652;12.216;2023-03-08T07:22:49;3.80;37.10
148;DHT22;142;50.652;12.216;2023-03-08T07:25:18;3.90;37.10
148;DHT22;142;50.652;12.216;2023-03-08T07:27:46;3.90;36.90
148;DHT22;142;50.652;12.216;2023-03-08T07:30:16;4.00;36.80
148;DHT22;142;50.652;12.216;2023-03-08T07:32:43;4.10;36.70
148;DHT22;142;50.652;12.216;2023-03-08T07:35:12;4.00;36.40
148;DHT22;142;50.652;12.216;2023-03-08T07:37:43;4.00;36.20
148;DHT22;142;50.652;12.216;2023-03-08T07:40:13;4.10;36.30
148;DHT22;142;50.652;12.216;2023-03-08T07:42:42;4.10;36.20
148;DHT22;142;50.652;12.216;2023-03-08T07:45:11;4.20;36.20
148;DHT22;142;50.652;12.216;2023-03-08T07:47:40;4.10;36.00
148;DHT22;142;50.652;12.216;2023-03-08T07:50:09;4.20;36.10
148;DHT22;142;50.652;12.216;2023-03-08T07:52:36;4.30;36.00
148;DHT22;142;50.652;12.216;2023-03-08T07:55:05;4.20;35.90
148;DHT22;142;50.652;12.216;2023-03-08T07:57:33;4.20;35.70
148;DHT22;142;50.652;12.216;2023-03-08T08:00:00;4.20;35.80
148;DHT22;142;50.652;12.216;2023-03-08T08:02:32;4.30;35.70
148;DHT22;142;50.652;12.216;2023-03-08T08:05:01;4.40;35.90
148;DHT22;142;50.652;12.216;2023-03-08T08:07:28;4.50;35.90
148;DHT22;142;50.652;12.216;2023-03-08T08:09:56;4.50;35.90
148;DHT22;142;50.652;12.216;2023-03-08T08:12:23;4.60;35.60
148;DHT22;142;50.652;12.216;2023-03-08T08:14:50;4.70;35.50
148;DHT22;142;50.652;12.216;2023-03-08T08:17:17;4.70;35.30
148;DHT22;142;50.652;12.216;2023-03-08T08:19:45;4.70;35.30
148;DHT22;142;50.652;12.216;2023-03-08T08:22:14;4.70;35.10
148;DHT22;142;50.652;12.216;2023-03-08T08:24:44;4.80;35.20
148;DHT22;142;50.652;12.216;2023-03-08T08:27:11;5.10;35.30
148;DHT22;142;50.652;12.216;2023-03-08T08:29:38;5.30;35.40
148;DHT22;142;50.652;12.216;2023-03-08T08:32:06;5.50;35.40
148;DHT22;142;50.652;12.216;2023-03-08T08:34:33;5.60;35.10
148;DHT22;142;50.652;12.216;2023-03-08T08:37:01;5.70;34.80
148;DHT22;142;50.652;12.216;2023-03-08T08:39:31;5.70;33.90
148;DHT22;142;50.652;12.216;2023-03-08T08:41:58;5.80;33.90
148;DHT22;142;50.652;12.216;2023-03-08T08:44:25;5.70;33.20
148;DHT22;142;50.652;12.216;2023-03-08T08:46:52;5.80;33.30
148;DHT22;142;50.652;12.216;2023-03-08T08:49:20;5.80;33.30
148;DHT22;142;50.652;12.216;2023-03-08T08:51:48;5.60;32.60
148;DHT22;142;50.652;12.216;2023-03-08T08:54:15;5.60;32.80
148;DHT22;142;50.652;12.216;2023-03-08T08:56:44;5.60;32.60
148;DHT22;142;50.652;12.216;2023-03-08T08:59:11;5.60;32.60
148;DHT22;142;50.652;12.216;2023-03-08T09:01:41;5.70;32.50
148;DHT22;142;50.652;12.216;2023-03-08T09:04:10;5.80;32.30
148;DHT22;142;50.652;12.216;2023-03-08T09:06:43;5.60;31.70
148;DHT22;142;50.652;12.216;2023-03-08T09:09:16;5.70;32.00
148;DHT22;142;50.652;12.216;2023-03-08T09:11:45;5.70;32.00
148;DHT22;142;50.652;12.216;2023-03-08T09:14:13;5.80;31.90
148;DHT22;142;50.652;12.216;2023-03-08T09:16:41;5.90;31.80
148;DHT22;142;50.652;12.216;2023-03-08T09:19:08;5.90;31.90
148;DHT22;142;50.652;12.216;2023-03-08T09:21:36;5.90;31.80
148;DHT22;142;50.652;12.216;2023-03-08T09:24:05;5.70;31.40
148;DHT22;142;50.652;12.216;2023-03-08T09:26:34;5.60;31.40
148;DHT22;142;50.652;12.216;2023-03-08T09:29:03;5.70;31.80
148;DHT22;142;50.652;12.216;2023-03-08T09:31:33;5.60;31.60
148;DHT22;142;50.652;12.216;2023-03-08T09:34:00;5.50;31.60
148;DHT22;142;50.652;12.216;2023-03-08T09:36:29;5.50;31.60
148;DHT22;142;50.652;12.216;2023-03-08T09:38:58;5.60;31.70
148;DHT22;142;50.652;12.216;2023-03-08T09:44:45;5.60;31.70
148;DHT22;142;50.652;12.216;2023-03-08T09:47:23;5.30;31.70
148;DHT22;142;50.652;12.216;2023-03-08T09:49:54;5.30;31.80
148;DHT22;142;50.652;12.216;2023-03-08T09:52:28;5.40;31.80
148;DHT22;142;50.652;12.216;2023-03-08T09:54:58;5.30;31.90
148;DHT22;142;50.652;12.216;2023-03-08T09:57:29;5.40;31.70
148;DHT22;142;50.652;12.216;2023-03-08T10:00:00;5.30;31.80
148;DHT22;142;50.652;12.216;2023-03-08T10:02:37;5.40;31.70
148;DHT22;142;50.652;12.216;2023-03-08T10:05:13;5.30;31.90
148;DHT22;142;50.652;12.216;2023-03-08T10:07:50;5.30;31.50
148;DHT22;142;50.652;12.216;2023-03-08T10:10:26;5.40;31.90
148;DHT22;142;50.652;12.216;2023-03-08T10:13:06;5.50;31.70
148;DHT22;142;50.652;12.216;2023-03-08T10:15:43;5.50;31.30
148;DHT22;142;50.652;12.216;2023-03-08T10:18:16;5.50;31.50
148;DHT22;142;50.652;12.216;2023-03-08T10:20:46;5.60;31.50
148;DHT22;142;50.652;12.216;2023-03-08T10:23:15;5.50;31.40
148;DHT22;142;50.652;12.216;2023-03-08T10:25:44;5.30;31.10
148;DHT22;142;50.652;12.216;2023-03-08T10:28:13;5.30;31.40
148;DHT22;142;50.652;12.216;2023-03-08T10:30:47;5.30;31.70
148;DHT22;142;50.652;12.216;2023-03-08T10:33:16;5.50;31.70
148;DHT22;142;50.652;12.216;2023-03-08T10:35:54;5.50;31.70
148;DHT22;142;50.652;12.216;2023-03-08T10:38:26;5.40;31.70
148;DHT22;142;50.652;12.216;2023-03-08T10:40:59;5.40;31.70
148;DHT22;142;50.652;12.216;2023-03-08T10:43:30;5.50;31.50
148;DHT22;142;50.652;12.216;2023-03-08T10:46:01;5.50;31.60
148;DHT22;142;50.652;12.216;2023-03-08T10:48:29;5.60;31.70
148;DHT22;142;50.652;12.216;2023-03-08T10:51:01;5.70;31.70
148;DHT22;142;50.652;12.216;2023-03-08T10:53:29;5.70;31.70
148;DHT22;142;50.652;12.216;2023-03-08T10:55:58;5.60;31.60
148;DHT22;142;50.652;12.216;2023-03-08T10:58:34;5.60;31.60
148;DHT22;142;50.652;12.216;2023-03-08T11:01:04;5.60;31.70
148;DHT22;142;50.652;12.216;2023-03-08T11:03:32;5.60;31.80
148;DHT22;142;50.652;12.216;2023-03-08T11:06:01;5.60;31.80
148;DHT22;142;50.652;12.216;2023-03-08T11:08:31;5.60;31.70
148;DHT22;142;50.652;12.216;2023-03-08T11:11:03;5.60;31.90
148;DHT22;142;50.652;12.216;2023-03-08T11:13:33;5.60;31.90
148;DHT22;142;50.652;12.216;2023-03-08T11:16:07;5.60;31.90
148;DHT22;142;50.652;12.216;2023-03-08T11:18:50;5.50;31.90
148;DHT22;142;50.652;12.216;2023-03-08T11:21:27;5.60;31.90
148;DHT22;142;50.652;12.216;2023-03-08T11:24:06;5.60;32.00
148;DHT22;142;50.652;12.216;2023-03-08T11:26:41;5.50;32.00
148;DHT22;142;50.652;12.216;2023-03-08T11:29:17;5.50;31.90
148;DHT22;142;50.652;12.216;2023-03-08T11:31:54;5.50;32.00
148;DHT22;142;50.652;12.216;2023-03-08T11:34:49;5.50;32.00
148;DHT22;142;50.652;12.216;2023-03-08T11:37:25;5.40;32.10
148;DHT22;142;50.652;12.216;2023-03-08T11:40:02;5.50;32.30
148;DHT22;142;50.652;12.216;2023-03-08T11:42:43;5.50;32.20
148;DHT22;142;50.652;12.216;2023-03-08T11:45:19;5.40;32.20
148;DHT22;142;50.652;12.216;2023-03-08T11:50:52;5.50;32.20
148;DHT22;142;50.652;12.216;2023-03-08T11:53:29;5.50;32.40
148;DHT22;142;50.652;12.216;2023-03-08T11:56:12;5.40;32.20
148;DHT22;142;50.652;12.216;2023-03-08T11:58:42;5.50;32.20
148;DHT22;142;50.652;12.216;2023-03-08T12:01:18;5.50;32.40
148;DHT22;142;50.652;12.216;2023-03-08T12:03:50;5.50;32.30
148;DHT22;142;50.652;12.216;2023-03-08T12:06:23;5.60;32.40
148;DHT22;142;50.652;12.216;2023-03-08T12:08:55;5.80;32.40
148;DHT22;142;50.652;12.216;2023-03-08T12:11:27;5.90;32.20
148;DHT22;142;50.652;12.216;2023-03-08T12:14:01;6.10;32.40
148;DHT22;142;50.652;12.216;2023-03-08T12:16:36;6.10;32.20
148;DHT22;142;50.652;12.216;2023-03-08T12:19:16;6.20;32.00
148;DHT22;142;50.652;12.216;2023-03-08T12:21:47;6.30;32.00
148;DHT22;142;50.652;12.216;2023-03-08T12:24:25;6.40;32.00
148;DHT22;142;50.652;12.216;2023-03-08T12:26:58;6.50;31.70
148;DHT22;142;50.652;12.216;2023-03-08T12:29:29;6.70;31.60
148;DHT22;142;50.652;12.216;2023-03-08T12:31:58;6.70;31.40
148;DHT22;142;50.652;12.216;2023-03-08T12:34:35;6.70;31.40
148;DHT22;142;50.652;12.216;2023-03-08T12:37:03;6.60;31.40
148;DHT22;142;50.652;12.216;2023-03-08T12:39:32;6.50;31.20
148;DHT22;142;50.652;12.216;2023-03-08T12:42:14;6.50;31.20
148;DHT22;142;50.652;12.216;2023-03-08T12:44:42;6.40;31.20
148;DHT22;142;50.652;12.216;2023-03-08T12:47:20;6.40;31.30
148;DHT22;142;50.652;12.216;2023-03-08T12:49:52;6.50;31.30
148;DHT22;142;50.652;12.216;2023-03-08T12:52:25;6.60;31.20
148;DHT22;142;50.652;12.216;2023-03-08T12:54:56;6.50;31.20
148;DHT22;142;50.652;12.216;2023-03-08T12:57:28;6.60;31.20
148;DHT22;142;50.652;12.216;2023-03-08T12:59:57;6.60;31.40
148;DHT22;142;50.652;12.216;2023-03-08T13:02:27;6.60;31.40
148;DHT22;142;50.652;12.216;2023-03-08T13:05:18;6.60;31.40
148;DHT22;142;50.652;12.216;2023-03-08T13:07:54;6.50;31.30
148;DHT22;142;50.652;12.216;2023-03-08T13:10:26;6.20;31.00
148;DHT22;142;50.652;12.216;2023-03-08T13:13:12;6.10;31.10
148;DHT22;142;50.652;12.216;2023-03-08T13:15:41;6.10;31.30
148;DHT22;142;50.652;12.216;2023-03-08T13:18:14;6.20;31.30
148;DHT22;142;50.652;12.216;2023-03-08T13:21:04;6.20;31.50
148;DHT22;142;50.652;12.216;2023-03-08T13:23:37;6.50;31.80
148;DHT22;142;50.652;12.216;2023-03-08T13:26:26;6.50;31.40
148;DHT22;142;50.652;12.216;2023-03-08T13:29:00;6.40;31.10
148;DHT22;142;50.652;12.216;2023-03-08T13:31:29;6.60;31.40
148;DHT22;142;50.652;12.216;2023-03-08T13:33:57;6.60;31.20
148;DHT22;142;50.652;12.216;2023-03-08T13:36:27;6.60;31.20
148;DHT22;142;50.652;12.216;2023-03-08T13:38:57;6.70;31.40
148;DHT22;142;50.652;12.216;2023-03-08T13:41:33;6.70;31.20
148;DHT22;142;50.652;12.216;2023-03-08T13:44:01;6.70;31.00
148;DHT22;142;50.652;12.216;2023-03-08T13:46:28;6.70;31.20
148;DHT22;142;50.652;12.216;2023-03-08T13:48:56;6.60;31.40
148;DHT22;142;50.652;12.216;2023-03-08T13:51:27;6.60;30.90
148;DHT22;142;50.652;12.216;2023-03-08T13:53:55;6.50;31.20
148;DHT22;142;50.652;12.216;2023-03-08T13:56:25;6.50;31.10
148;DHT22;142;50.652;12.216;2023-03-08T13:58:54;6.60;31.20
148;DHT22;142;50.652;12.216;2023-03-08T14:01:24;6.60;31.10
148;DHT22;142;50.652;12.216;2023-03-08T14:03:52;6.60;31.20
148;DHT22;142;50.652;12.216;2023-03-08T14:06:25;6.50;31.00
148;DHT22;142;50.652;12.216;2023-03-08T14:08:56;6.40;31.40
148;DHT22;142;50.652;12.216;2023-03-08T14:11:27;6.50;31.40
148;DHT22;142;50.652;12.216;2023-03-08T14:13:56;6.40;31.40
148;DHT22;142;50.652;12.216;2023-03-08T14:16:29;6.40;31.50
148;DHT22;142;50.652;12.216;2023-03-08T14:18:57;6.50;31.50
148;DHT22;142;50.652;12.216;2023-03-08T14:21:26;6.60;31.60
148;DHT22;142;50.652;12.216;2023-03-08T14:23:56;6.60;31.40
148;DHT22;142;50.652;12.216;2023-03-08T14:26:27;6.60;31.50
148;DHT22;142;50.652;12.216;2023-03-08T14:29:09;6.50;31.40
148;DHT22;142;50.652;12.216;2023-03-08T14:31:36;6.40;31.50
148;DHT22;142;50.652;12.216;2023-03-08T14:34:17;6.30;31.40
148;DHT22;142;50.652;12.216;2023-03-08T14:36:50;6.40;31.60
148;DHT22;142;50.652;12.216;2023-03-08T14:39:22;6.50;31.60
148;DHT22;142;50.652;12.216;2023-03-08T14:41:51;6.50;31.60
148;DHT22;142;50.652;12.216;2023-03-08T14:44:22;6.60;31.70
148;DHT22;142;50.652;12.216;2023-03-08T14:46:50;6.60;31.70
148;DHT22;142;50.652;12.216;2023-03-08T14:49:25;6.70;31.70
148;DHT22;142;50.652;12.216;2023-03-08T14:51:53;6.80;31.60
148;DHT22;142;50.652;12.216;2023-03-08T14:54:29;6.80;31.60
148;DHT22;142;50.652;12.216;2023-03-08T14:56:58;6.80;31.60
148;DHT22;142;50.652;12.216;2023-03-08T14:59:25;6.80;31.40
148;DHT22;142;50.652;12.216;2023-03-08T15:01:52;6.90;31.50
148;DHT22;142;50.652;12.216;2023-03-08T15:04:21;6.90;31.50
148;DHT22;142;50.652;12.216;2023-03-08T15:06:50;6.90;31.50
148;DHT22;142;50.652;12.216;2023-03-08T15:09:20;6.80;31.40
148;DHT22;142;50.652;12.216;2023-03-08T15:11:51;6.80;31.50
148;DHT22;142;50.652;12.216;2023-03-08T15:14:21;6.80;31.60
148;DHT22;142;50.652;12.216;2023-03-08T15:16:49;6.90;31.50
148;DHT22;142;50.652;12.216;2023-03-08T15:19:17;6.90;31.60
148;DHT22;142;50.652;12.216;2023-03-08T15:21:45;6.80;31.40
148;DHT22;142;50.652;12.216;2023-03-08T15:24:13;6.80;31.60
148;DHT22;142;50.652;12.216;2023-03-08T15:26:42;6.80;31.70
148;DHT22;142;50.652;12.216;2023-03-08T15:29:22;6.80;31.90
148;DHT22;142;50.652;12.216;2023-03-08T15:31:49;6.80;31.60
148;DHT22;142;50.652;12.216;2023-03-08T15:34:16;6.70;31.80
148;DHT22;142;50.652;12.216;2023-03-08T15:36:44;6.80;32.00
148;DHT22;142;50.652;12.216;2023-03-08T15:39:11;6.90;32.00
148;DHT22;142;50.652;12.216;2023-03-08T15:41:39;6.90;31.70
148;DHT22;142;50.652;12.216;2023-03-08T15:44:06;6.80;31.60
148;DHT22;142;50.652;12.216;2023-03-08T15:46:35;6.80;31.70
148;DHT22;142;50.652;12.216;2023-03-08T15:49:03;6.80;31.70
148;DHT22;142;50.652;12.216;2023-03-08T15:51:32;6.90;31.90
148;DHT22;142;50.652;12.216;2023-03-08T15:54:00;6.90;31.90
148;DHT22;142;50.652;12.216;2023-03-08T15:56:27;6.90;31.60
148;DHT22;142;50.652;12.216;2023-03-08T15:58:54;6.90;31.70
148;DHT22;142;50.652;12.216;2023-03-08T16:01:23;6.90;31.60
148;DHT22;142;50.652;12.216;2023-03-08T16:03:54;6.90;31.70
148;DHT22;142;50.652;12.216;2023-03-08T16:06:22;6.90;31.70
148;DHT22;142;50.652;12.216;2023-03-08T16:08:50;6.80;31.60
148;DHT22;142;50.652;12.216;2023-03-08T16:11:18;6.80;31.70
148;DHT22;142;50.652;12.216;2023-03-08T16:13:48;6.90;31.90
148;DHT22;142;50.652;12.216;2023-03-08T16:16:15;7.00;31.90
148;DHT22;142;50.652;12.216;2023-03-08T16:18:43;6.90;31.50
148;DHT22;142;50.652;12.216;2023-03-08T16:21:12;6.90;31.60
148;DHT22;142;50.652;12.216;2023-03-08T16:23:39;7.00;31.60
148;DHT22;142;50.652;12.216;2023-03-08T16:26:09;7.00;31.70
148;DHT22;142;50.652;12.216;2023-03-08T16:28:36;6.90;31.60
148;DHT22;142;50.652;12.216;2023-03-08T16:31:03;6.80;31.70
148;DHT22;142;50.652;12.216;2023-03-08T16:33:31;6.60;31.70
148;DHT22;142;50.652;12.216;2023-03-08T16:35:58;6.70;32.00
148;DHT22;142;50.652;12.216;2023-03-08T16:38:26;6.60;32.00
148;DHT22;142;50.652;12.216;2023-03-08T16:40:53;6.60;31.90
148;DHT22;142;50.652;12.216;2023-03-08T16:43:21;6.60;32.10
148;DHT22;142;50.652;12.216;2023-03-08T16:45:53;6.60;32.20
148;DHT22;142;50.652;12.216;2023-03-08T16:48:21;6.60;32.20
148;DHT22;142;50.652;12.216;2023-03-08T16:50:50;6.60;32.20
148;DHT22;142;50.652;12.216;2023-03-08T16:53:18;6.60;32.30
148;DHT22;142;50.652;12.216;2023-03-08T16:55:47;6.60;32.30